sensor_id;sensor_type;location;lat;lon;timestamp;P1;durP1;ratioP1;P2;durP2;ratioP2
19038;SDS011;9652;49.014;12.052;2022-07-29T00:01:50;2.13;;;1.60;;
19038;SDS011;9652;49.014;12.052;2022-07-29T00:04:18;2.10;;;1.80;;
19038;SDS011;9652;49.014;12.052;2022-07-29T00:06:46;3.77;;;1.77;;
19038;SDS011;9652;49.014;12.052;2022-07-29T00:09:13;1.83;;;1.53;;
19038;SDS011;9652;49.014;12.052;2022-07-29T00:11:40;1.97;;;1.70;;
19038;SDS011;9652;49.014;12.052;2022-07-29T00:14:07;1.97;;;1.67;;
19038;SDS011;9652;49.014;12.052;2022-07-29T00:16:35;4.20;;;1.77;;
19038;SDS011;9652;49.014;12.052;2022-07-29T00:19:03;1.63;;;1.53;;
19038;SDS011;9652;49.014;12.052;2022-07-29T00:21:30;1.97;;;1.50;;
19038;SDS011;9652;49.014;12.052;2022-07-29T00:23:57;1.63;;;1.53;;
19038;SDS011;9652;49.014;12.052;2022-07-29T00:26:24;2.53;;;1.83;;
19038;SDS011;9652;49.014;12.052;2022-07-29T00:28:56;2.30;;;1.70;;
19038;SDS011;9652;49.014;12.052;2022-07-29T00:31:24;2.23;;;1.60;;
19038;SDS011;9652;49.014;12.052;2022-07-29T00:33:53;2.57;;;2.10;;
19038;SDS011;9652;49.014;12.052;2022-07-29T00:36:20;1.87;;;1.77;;
19038;SDS011;9652;49.014;12.052;2022-07-29T00:38:47;3.07;;;1.80;;
19038;SDS011;9652;49.014;12.052;2022-07-29T00:41:15;2.50;;;1.80;;
19038;SDS011;9652;49.014;12.052;2022-07-29T00:43:42;2.20;;;1.80;;
19038;SDS011;9652;49.014;12.052;2022-07-29T00:46:10;2.40;;;1.80;;
19038;SDS011;9652;49.014;12.052;2022-07-29T00:48:37;3.77;;;1.97;;
19038;SDS011;9652;49.014;12.052;2022-07-29T00:51:06;2.60;;;2.00;;
19038;SDS011;9652;49.014;12.052;2022-07-29T00:53:35;2.57;;;2.20;;
19038;SDS011;9652;49.014;12.052;2022-07-29T00:56:02;2.07;;;1.60;;
19038;SDS011;9652;49.014;12.052;2022-07-29T00:58:30;2.90;;;2.00;;
19038;SDS011;9652;49.014;12.052;2022-07-29T01:00:58;2.87;;;1.70;;
19038;SDS011;9652;49.014;12.052;2022-07-29T01:03:25;2.90;;;1.70;;
19038;SDS011;9652;49.014;12.052;2022-07-29T01:05:52;2.30;;;1.50;;
19038;SDS011;9652;49.014;12.052;2022-07-29T01:08:22;2.50;;;1.77;;
19038;SDS011;9652;49.014;12.052;2022-07-29T01:10:50;2.50;;;1.97;;
19038;SDS011;9652;49.014;12.052;2022-07-29T01:13:19;2.27;;;1.80;;
19038;SDS011;9652;49.014;12.052;2022-07-29T01:15:49;5.03;;;1.90;;
19038;SDS011;9652;49.014;12.052;2022-07-29T01:18:24;2.90;;;1.90;;
19038;SDS011;9652;49.014;12.052;2022-07-29T01:21:12;2.23;;;1.80;;
19038;SDS011;9652;49.014;12.052;2022-07-29T01:27:16;2.73;;;1.57;;
19038;SDS011;9652;49.014;12.052;2022-07-29T01:30:08;2.97;;;2.03;;
19038;SDS011;9652;49.014;12.052;2022-07-29T01:32:37;2.33;;;2.07;;
19038;SDS011;9652;49.014;12.052;2022-07-29T01:35:09;2.07;;;1.67;;
19038;SDS011;9652;49.014;12.052;2022-07-29T01:37:44;3.90;;;1.90;;
19038;SDS011;9652;49.014;12.052;2022-07-29T01:40:18;1.67;;;1.57;;
19038;SDS011;9652;49.014;12.052;2022-07-29T01:42:51;2.03;;;1.70;;
19038;SDS011;9652;49.014;12.052;2022-07-29T01:45:25;3.40;;;1.90;;
19038;SDS011;9652;49.014;12.052;2022-07-29T01:48:00;3.10;;;1.90;;
19038;SDS011;9652;49.014;12.052;2022-07-29T01:50:40;2.87;;;1.70;;
19038;SDS011;9652;49.014;12.052;2022-07-29T01:53:14;1.93;;;1.60;;
19038;SDS011;9652;49.014;12.052;2022-07-29T01:55:50;1.97;;;1.53;;
19038;SDS011;9652;49.014;12.052;2022-07-29T01:58:19;3.17;;;2.13;;
19038;SDS011;9652;49.014;12.052;2022-07-29T02:00:49;2.43;;;1.83;;
19038;SDS011;9652;49.014;12.052;2022-07-29T02:03:18;2.63;;;1.60;;
19038;SDS011;9652;49.014;12.052;2022-07-29T02:05:46;2.73;;;2.00;;
19038;SDS011;9652;49.014;12.052;2022-07-29T02:08:17;2.13;;;1.93;;
19038;SDS011;9652;49.014;12.052;2022-07-29T02:10:47;2.50;;;2.00;;
19038;SDS011;9652;49.014;12.052;2022-07-29T02:13:17;3.57;;;1.57;;
19038;SDS011;9652;49.014;12.052;2022-07-29T02:15:46;2.10;;;1.90;;
19038;SDS011;9652;49.014;12.052;2022-07-29T02:18:20;1.90;;;1.70;;
19038;SDS011;9652;49.014;12.052;2022-07-29T02:20:52;2.83;;;2.10;;
19038;SDS011;9652;49.014;12.052;2022-07-29T02:23:23;1.93;;;1.60;;
19038;SDS011;9652;49.014;12.052;2022-07-29T02:25:53;3.07;;;2.10;;
19038;SDS011;9652;49.014;12.052;2022-07-29T02:28:23;2.80;;;2.10;;
19038;SDS011;9652;49.014;12.052;2022-07-29T02:30:55;2.73;;;2.10;;
19038;SDS011;9652;49.014;12.052;2022-07-29T02:33:26;2.50;;;2.20;;
19038;SDS011;9652;49.014;12.052;2022-07-29T02:35:57;3.73;;;2.17;;
19038;SDS011;9652;49.014;12.052;2022-07-29T02:38:27;3.30;;;1.93;;
19038;SDS011;9652;49.014;12.052;2022-07-29T02:41:15;2.60;;;2.00;;
19038;SDS011;9652;49.014;12.052;2022-07-29T02:43:47;2.53;;;2.00;;
19038;SDS011;9652;49.014;12.052;2022-07-29T02:46:24;2.10;;;1.70;;
19038;SDS011;9652;49.014;12.052;2022-07-29T02:48:58;3.20;;;2.20;;
19038;SDS011;9652;49.014;12.052;2022-07-29T02:51:34;3.17;;;1.87;;
19038;SDS011;9652;49.014;12.052;2022-07-29T02:54:10;2.50;;;1.90;;
19038;SDS011;9652;49.014;12.052;2022-07-29T02:56:49;2.13;;;1.90;;
19038;SDS011;9652;49.014;12.052;2022-07-29T02:59:22;1.83;;;1.70;;
19038;SDS011;9652;49.014;12.052;2022-07-29T03:01:54;3.00;;;1.93;;
19038;SDS011;9652;49.014;12.052;2022-07-29T03:04:25;2.33;;;2.10;;
19038;SDS011;9652;49.014;12.052;2022-07-29T03:06:54;2.60;;;2.20;;
19038;SDS011;9652;49.014;12.052;2022-07-29T03:09:25;3.30;;;1.87;;
19038;SDS011;9652;49.014;12.052;2022-07-29T03:11:54;4.80;;;2.20;;
19038;SDS011;9652;49.014;12.052;2022-07-29T03:14:22;4.30;;;2.13;;
19038;SDS011;9652;49.014;12.052;2022-07-29T03:16:50;2.37;;;2.00;;
19038;SDS011;9652;49.014;12.052;2022-07-29T03:19:20;2.60;;;2.10;;
19038;SDS011;9652;49.014;12.052;2022-07-29T03:21:47;4.20;;;1.97;;
19038;SDS011;9652;49.014;12.052;2022-07-29T03:24:25;2.20;;;2.00;;
19038;SDS011;9652;49.014;12.052;2022-07-29T03:26:57;1.93;;;1.73;;
19038;SDS011;9652;49.014;12.052;2022-07-29T03:29:25;4.87;;;2.00;;
19038;SDS011;9652;49.014;12.052;2022-07-29T03:31:54;2.43;;;2.10;;
19038;SDS011;9652;49.014;12.052;2022-07-29T03:34:22;2.10;;;1.70;;
19038;SDS011;9652;49.014;12.052;2022-07-29T03:36:50;2.47;;;1.90;;
19038;SDS011;9652;49.014;12.052;2022-07-29T03:39:18;2.00;;;1.70;;
19038;SDS011;9652;49.014;12.052;2022-07-29T03:41:52;3.67;;;2.00;;
19038;SDS011;9652;49.014;12.052;2022-07-29T03:44:22;3.20;;;2.27;;
19038;SDS011;9652;49.014;12.052;2022-07-29T03:46:55;2.40;;;2.20;;
19038;SDS011;9652;49.014;12.052;2022-07-29T03:49:27;2.83;;;2.17;;
19038;SDS011;9652;49.014;12.052;2022-07-29T03:51:56;3.43;;;2.00;;
19038;SDS011;9652;49.014;12.052;2022-07-29T03:54:23;2.67;;;2.20;;
19038;SDS011;9652;49.014;12.052;2022-07-29T03:56:50;3.43;;;1.80;;
19038;SDS011;9652;49.014;12.052;2022-07-29T03:59:20;2.53;;;1.93;;
19038;SDS011;9652;49.014;12.052;2022-07-29T04:01:48;2.97;;;2.30;;
19038;SDS011;9652;49.014;12.052;2022-07-29T04:04:17;3.20;;;1.80;;
19038;SDS011;9652;49.014;12.052;2022-07-29T04:06:45;2.23;;;1.93;;
19038;SDS011;9652;49.014;12.052;2022-07-29T04:09:13;2.60;;;1.97;;
19038;SDS011;9652;49.014;12.052;2022-07-29T04:11:40;2.27;;;1.90;;
19038;SDS011;9652;49.014;12.052;2022-07-29T04:14:08;2.23;;;2.00;;
19038;SDS011;9652;49.014;12.052;2022-07-29T04:16:35;3.17;;;2.13;;
19038;SDS011;9652;49.014;12.052;2022-07-29T04:19:02;2.43;;;1.80;;
19038;SDS011;9652;49.014;12.052;2022-07-29T04:21:30;3.00;;;2.07;;
19038;SDS011;9652;49.014;12.052;2022-07-29T04:24:02;1.70;;;1.50;;
19038;SDS011;9652;49.014;12.052;2022-07-29T04:26:29;2.10;;;1.87;;
19038;SDS011;9652;49.014;12.052;2022-07-29T04:28:56;3.73;;;2.27;;
19038;SDS011;9652;49.014;12.052;2022-07-29T04:31:23;2.10;;;1.90;;
19038;SDS011;9652;49.014;12.052;2022-07-29T04:33:51;3.67;;;2.13;;
19038;SDS011;9652;49.014;12.052;2022-07-29T04:36:18;2.77;;;2.10;;
19038;SDS011;9652;49.014;12.052;2022-07-29T04:38:46;4.03;;;2.17;;
19038;SDS011;9652;49.014;12.052;2022-07-29T04:41:13;2.23;;;1.80;;
19038;SDS011;9652;49.014;12.052;2022-07-29T04:43:40;1.77;;;1.50;;
19038;SDS011;9652;49.014;12.052;2022-07-29T04:46:07;2.57;;;2.07;;
19038;SDS011;9652;49.014;12.052;2022-07-29T04:48:34;3.00;;;1.73;;
19038;SDS011;9652;49.014;12.052;2022-07-29T04:51:01;1.63;;;1.53;;
19038;SDS011;9652;49.014;12.052;2022-07-29T04:53:28;3.93;;;1.60;;
19038;SDS011;9652;49.014;12.052;2022-07-29T04:55:57;1.70;;;1.60;;
19038;SDS011;9652;49.014;12.052;2022-07-29T04:58:24;2.93;;;2.30;;
19038;SDS011;9652;49.014;12.052;2022-07-29T05:00:51;2.00;;;1.80;;
19038;SDS011;9652;49.014;12.052;2022-07-29T05:03:18;5.10;;;1.83;;
19038;SDS011;9652;49.014;12.052;2022-07-29T05:05:45;2.87;;;2.00;;
19038;SDS011;9652;49.014;12.052;2022-07-29T05:08:12;2.40;;;2.00;;
19038;SDS011;9652;49.014;12.052;2022-07-29T05:10:39;2.27;;;2.00;;
19038;SDS011;9652;49.014;12.052;2022-07-29T05:13:07;2.07;;;1.80;;
19038;SDS011;9652;49.014;12.052;2022-07-29T05:15:34;4.50;;;1.70;;
19038;SDS011;9652;49.014;12.052;2022-07-29T05:18:02;2.97;;;1.70;;
19038;SDS011;9652;49.014;12.052;2022-07-29T05:20:30;1.57;;;1.40;;
19038;SDS011;9652;49.014;12.052;2022-07-29T05:22:59;2.43;;;1.80;;
19038;SDS011;9652;49.014;12.052;2022-07-29T05:25:29;2.20;;;1.67;;
19038;SDS011;9652;49.014;12.052;2022-07-29T05:27:56;2.33;;;1.60;;
19038;SDS011;9652;49.014;12.052;2022-07-29T05:30:25;1.90;;;1.50;;
19038;SDS011;9652;49.014;12.052;2022-07-29T05:32:52;2.00;;;1.53;;
19038;SDS011;9652;49.014;12.052;2022-07-29T05:35:19;2.37;;;1.40;;
19038;SDS011;9652;49.014;12.052;2022-07-29T05:37:46;2.37;;;1.60;;
19038;SDS011;9652;49.014;12.052;2022-07-29T05:40:13;2.27;;;1.53;;
19038;SDS011;9652;49.014;12.052;2022-07-29T05:42:41;2.77;;;1.90;;
19038;SDS011;9652;49.014;12.052;2022-07-29T05:45:08;4.00;;;1.67;;
19038;SDS011;9652;49.014;12.052;2022-07-29T05:47:37;2.13;;;1.60;;
19038;SDS011;9652;49.014;12.052;2022-07-29T05:50:05;2.50;;;1.80;;
19038;SDS011;9652;49.014;12.052;2022-07-29T05:52:33;5.17;;;2.20;;
19038;SDS011;9652;49.014;12.052;2022-07-29T05:55:00;2.80;;;1.73;;
19038;SDS011;9652;49.014;12.052;2022-07-29T05:57:30;2.33;;;1.97;;
19038;SDS011;9652;49.014;12.052;2022-07-29T05:59:57;6.33;;;2.30;;
19038;SDS011;9652;49.014;12.052;2022-07-29T06:02:24;4.23;;;2.10;;
19038;SDS011;9652;49.014;12.052;2022-07-29T06:04:53;4.27;;;2.57;;
19038;SDS011;9652;49.014;12.052;2022-07-29T06:07:20;1.97;;;1.57;;
19038;SDS011;9652;49.014;12.052;2022-07-29T06:09:47;3.60;;;2.10;;
19038;SDS011;9652;49.014;12.052;2022-07-29T06:12:14;2.50;;;2.30;;
19038;SDS011;9652;49.014;12.052;2022-07-29T06:14:41;3.70;;;2.03;;
19038;SDS011;9652;49.014;12.052;2022-07-29T06:17:08;2.27;;;1.83;;
19038;SDS011;9652;49.014;12.052;2022-07-29T06:19:36;2.40;;;1.63;;
19038;SDS011;9652;49.014;12.052;2022-07-29T06:22:05;2.83;;;1.60;;
19038;SDS011;9652;49.014;12.052;2022-07-29T06:24:32;2.77;;;1.77;;
19038;SDS011;9652;49.014;12.052;2022-07-29T06:26:59;2.10;;;1.90;;
19038;SDS011;9652;49.014;12.052;2022-07-29T06:29:26;3.03;;;2.00;;
19038;SDS011;9652;49.014;12.052;2022-07-29T06:31:53;2.20;;;1.70;;
19038;SDS011;9652;49.014;12.052;2022-07-29T06:34:20;8.50;;;1.90;;
19038;SDS011;9652;49.014;12.052;2022-07-29T06:36:47;2.10;;;1.63;;
19038;SDS011;9652;49.014;12.052;2022-07-29T06:39:16;6.67;;;1.80;;
19038;SDS011;9652;49.014;12.052;2022-07-29T06:41:45;4.00;;;1.70;;
19038;SDS011;9652;49.014;12.052;2022-07-29T06:44:14;7.03;;;1.60;;
19038;SDS011;9652;49.014;12.052;2022-07-29T06:46:41;4.27;;;1.67;;
19038;SDS011;9652;49.014;12.052;2022-07-29T06:49:08;8.07;;;1.83;;
19038;SDS011;9652;49.014;12.052;2022-07-29T06:51:37;3.07;;;1.90;;
19038;SDS011;9652;49.014;12.052;2022-07-29T06:54:04;4.57;;;1.80;;
19038;SDS011;9652;49.014;12.052;2022-07-29T06:56:33;2.17;;;1.40;;
19038;SDS011;9652;49.014;12.052;2022-07-29T06:59:02;3.73;;;1.70;;
19038;SDS011;9652;49.014;12.052;2022-07-29T07:01:29;1.97;;;1.60;;
19038;SDS011;9652;49.014;12.052;2022-07-29T07:03:56;3.67;;;1.80;;
19038;SDS011;9652;49.014;12.052;2022-07-29T07:06:23;4.80;;;1.67;;
19038;SDS011;9652;49.014;12.052;2022-07-29T07:08:50;2.30;;;1.53;;
19038;SDS011;9652;49.014;12.052;2022-07-29T07:11:17;6.17;;;1.70;;
19038;SDS011;9652;49.014;12.052;2022-07-29T07:13:46;3.03;;;1.40;;
19038;SDS011;9652;49.014;12.052;2022-07-29T07:16:13;2.50;;;1.47;;
19038;SDS011;9652;49.014;12.052;2022-07-29T07:18:40;3.47;;;1.90;;
19038;SDS011;9652;49.014;12.052;2022-07-29T07:21:10;2.63;;;1.40;;
19038;SDS011;9652;49.014;12.052;2022-07-29T07:23:37;3.00;;;1.63;;
19038;SDS011;9652;49.014;12.052;2022-07-29T07:26:04;4.53;;;1.87;;
19038;SDS011;9652;49.014;12.052;2022-07-29T07:28:31;1.40;;;1.30;;
19038;SDS011;9652;49.014;12.052;2022-07-29T07:30:59;2.57;;;1.60;;
19038;SDS011;9652;49.014;12.052;2022-07-29T07:33:26;4.10;;;1.87;;
19038;SDS011;9652;49.014;12.052;2022-07-29T07:35:53;4.93;;;1.70;;
19038;SDS011;9652;49.014;12.052;2022-07-29T07:38:20;10.23;;;2.00;;
19038;SDS011;9652;49.014;12.052;2022-07-29T07:40:47;2.47;;;1.87;;
19038;SDS011;9652;49.014;12.052;2022-07-29T07:43:14;1.77;;;1.50;;
19038;SDS011;9652;49.014;12.052;2022-07-29T07:45:42;3.20;;;1.60;;
19038;SDS011;9652;49.014;12.052;2022-07-29T07:48:10;7.83;;;2.23;;
19038;SDS011;9652;49.014;12.052;2022-07-29T07:50:37;1.90;;;1.60;;
19038;SDS011;9652;49.014;12.052;2022-07-29T07:53:04;2.80;;;1.77;;
19038;SDS011;9652;49.014;12.052;2022-07-29T07:55:31;2.57;;;1.70;;
19038;SDS011;9652;49.014;12.052;2022-07-29T07:57:58;8.30;;;1.93;;
19038;SDS011;9652;49.014;12.052;2022-07-29T08:00:25;2.57;;;1.60;;
19038;SDS011;9652;49.014;12.052;2022-07-29T08:02:52;6.57;;;2.07;;
19038;SDS011;9652;49.014;12.052;2022-07-29T08:05:21;2.40;;;1.80;;
19038;SDS011;9652;49.014;12.052;2022-07-29T08:07:48;4.10;;;1.83;;
19038;SDS011;9652;49.014;12.052;2022-07-29T08:10:15;2.83;;;1.73;;
19038;SDS011;9652;49.014;12.052;2022-07-29T08:13:05;2.80;;;2.00;;
19038;SDS011;9652;49.014;12.052;2022-07-29T08:15:35;7.83;;;2.63;;
19038;SDS011;9652;49.014;12.052;2022-07-29T08:18:05;5.03;;;1.70;;
19038;SDS011;9652;49.014;12.052;2022-07-29T08:20:34;2.33;;;2.13;;
19038;SDS011;9652;49.014;12.052;2022-07-29T08:23:03;7.77;;;2.30;;
19038;SDS011;9652;49.014;12.052;2022-07-29T08:25:31;3.03;;;2.23;;
19038;SDS011;9652;49.014;12.052;2022-07-29T08:27:58;5.87;;;2.07;;
19038;SDS011;9652;49.014;12.052;2022-07-29T08:30:25;3.57;;;1.90;;
19038;SDS011;9652;49.014;12.052;2022-07-29T08:32:52;3.30;;;1.83;;
19038;SDS011;9652;49.014;12.052;2022-07-29T08:35:19;1.87;;;1.57;;
19038;SDS011;9652;49.014;12.052;2022-07-29T08:37:48;4.40;;;1.80;;
19038;SDS011;9652;49.014;12.052;2022-07-29T08:40:15;4.70;;;2.03;;
19038;SDS011;9652;49.014;12.052;2022-07-29T08:42:43;8.13;;;1.90;;
19038;SDS011;9652;49.014;12.052;2022-07-29T08:45:10;2.90;;;2.07;;
19038;SDS011;9652;49.014;12.052;2022-07-29T08:47:38;2.40;;;1.97;;
19038;SDS011;9652;49.014;12.052;2022-07-29T08:50:06;2.40;;;2.20;;
19038;SDS011;9652;49.014;12.052;2022-07-29T08:52:35;3.08;;;1.98;;
19038;SDS011;9652;49.014;12.052;2022-07-29T08:55:07;3.07;;;2.47;;
19038;SDS011;9652;49.014;12.052;2022-07-29T08:57:36;2.70;;;2.05;;
19038;SDS011;9652;49.014;12.052;2022-07-29T09:00:07;2.38;;;1.88;;
19038;SDS011;9652;49.014;12.052;2022-07-29T09:02:38;3.07;;;2.17;;
19038;SDS011;9652;49.014;12.052;2022-07-29T09:05:09;3.97;;;2.13;;
19038;SDS011;9652;49.014;12.052;2022-07-29T09:07:37;3.38;;;1.83;;
19038;SDS011;9652;49.014;12.052;2022-07-29T09:10:09;2.97;;;2.17;;
19038;SDS011;9652;49.014;12.052;2022-07-29T09:12:36;3.35;;;2.60;;
19038;SDS011;9652;49.014;12.052;2022-07-29T09:15:04;3.42;;;2.45;;
19038;SDS011;9652;49.014;12.052;2022-07-29T09:17:42;3.10;;;2.15;;
19038;SDS011;9652;49.014;12.052;2022-07-29T09:20:11;4.70;;;2.43;;
19038;SDS011;9652;49.014;12.052;2022-07-29T09:22:41;4.32;;;2.58;;
19038;SDS011;9652;49.014;12.052;2022-07-29T09:25:10;6.72;;;2.70;;
19038;SDS011;9652;49.014;12.052;2022-07-29T09:27:38;6.85;;;2.95;;
19038;SDS011;9652;49.014;12.052;2022-07-29T09:30:06;4.40;;;3.35;;
19038;SDS011;9652;49.014;12.052;2022-07-29T09:35:24;3.72;;;2.40;;
19038;SDS011;9652;49.014;12.052;2022-07-29T09:37:53;5.88;;;2.50;;
19038;SDS011;9652;49.014;12.052;2022-07-29T09:40:22;2.58;;;2.38;;
19038;SDS011;9652;49.014;12.052;2022-07-29T09:42:51;4.03;;;2.30;;
19038;SDS011;9652;49.014;12.052;2022-07-29T09:45:28;7.90;;;2.58;;
19038;SDS011;9652;49.014;12.052;2022-07-29T09:47:58;3.10;;;2.60;;
19038;SDS011;9652;49.014;12.052;2022-07-29T09:50:39;4.35;;;2.35;;
19038;SDS011;9652;49.014;12.052;2022-07-29T09:53:09;8.07;;;2.08;;
19038;SDS011;9652;49.014;12.052;2022-07-29T09:58:23;2.78;;;2.40;;
19038;SDS011;9652;49.014;12.052;2022-07-29T10:00:51;3.10;;;2.50;;
19038;SDS011;9652;49.014;12.052;2022-07-29T10:03:21;3.10;;;2.08;;
19038;SDS011;9652;49.014;12.052;2022-07-29T10:06:03;3.85;;;2.20;;
19038;SDS011;9652;49.014;12.052;2022-07-29T10:08:35;1.92;;;1.70;;
19038;SDS011;9652;49.014;12.052;2022-07-29T10:11:10;2.55;;;1.90;;
19038;SDS011;9652;49.014;12.052;2022-07-29T10:13:39;2.40;;;1.90;;
19038;SDS011;9652;49.014;12.052;2022-07-29T10:16:08;2.40;;;1.70;;
19038;SDS011;9652;49.014;12.052;2022-07-29T10:18:36;2.75;;;1.80;;
19038;SDS011;9652;49.014;12.052;2022-07-29T10:21:05;3.85;;;2.28;;
19038;SDS011;9652;49.014;12.052;2022-07-29T10:23:32;3.45;;;2.20;;
19038;SDS011;9652;49.014;12.052;2022-07-29T10:26:01;3.25;;;1.80;;
19038;SDS011;9652;49.014;12.052;2022-07-29T10:28:31;1.85;;;1.73;;
19038;SDS011;9652;49.014;12.052;2022-07-29T10:30:59;2.05;;;1.70;;
19038;SDS011;9652;49.014;12.052;2022-07-29T10:36:32;2.25;;;2.05;;
19038;SDS011;9652;49.014;12.052;2022-07-29T10:39:17;3.70;;;2.03;;
19038;SDS011;9652;49.014;12.052;2022-07-29T10:42:04;2.72;;;2.15;;
19038;SDS011;9652;49.014;12.052;2022-07-29T10:44:44;2.72;;;1.92;;
19038;SDS011;9652;49.014;12.052;2022-07-29T10:47:19;4.57;;;2.05;;
19038;SDS011;9652;49.014;12.052;2022-07-29T10:49:57;1.40;;;1.30;;
19038;SDS011;9652;49.014;12.052;2022-07-29T10:55:32;1.50;;;1.20;;
19038;SDS011;9652;49.014;12.052;2022-07-29T10:58:11;1.80;;;1.70;;
19038;SDS011;9652;49.014;12.052;2022-07-29T11:00:41;2.47;;;1.50;;
19038;SDS011;9652;49.014;12.052;2022-07-29T11:03:08;3.03;;;1.20;;
19038;SDS011;9652;49.014;12.052;2022-07-29T11:05:51;1.50;;;1.40;;
19038;SDS011;9652;49.014;12.052;2022-07-29T11:08:21;1.45;;;1.30;;
19038;SDS011;9652;49.014;12.052;2022-07-29T11:10:51;2.05;;;1.33;;
19038;SDS011;9652;49.014;12.052;2022-07-29T11:13:47;1.35;;;1.25;;
19038;SDS011;9652;49.014;12.052;2022-07-29T11:16:18;1.30;;;1.20;;
19038;SDS011;9652;49.014;12.052;2022-07-29T11:21:47;1.80;;;1.27;;
19038;SDS011;9652;49.014;12.052;2022-07-29T11:24:17;1.15;;;1.05;;
19038;SDS011;9652;49.014;12.052;2022-07-29T11:29:40;1.85;;;1.13;;
19038;SDS011;9652;49.014;12.052;2022-07-29T11:32:18;1.27;;;1.17;;
19038;SDS011;9652;49.014;12.052;2022-07-29T11:34:47;3.08;;;0.90;;
19038;SDS011;9652;49.014;12.052;2022-07-29T11:37:16;2.35;;;1.10;;
19038;SDS011;9652;49.014;12.052;2022-07-29T11:40:08;0.82;;;0.80;;
19038;SDS011;9652;49.014;12.052;2022-07-29T11:42:45;0.77;;;0.77;;
19038;SDS011;9652;49.014;12.052;2022-07-29T11:45:14;1.27;;;1.17;;
19038;SDS011;9652;49.014;12.052;2022-07-29T11:47:50;1.10;;;0.98;;
19038;SDS011;9652;49.014;12.052;2022-07-29T11:50:30;1.10;;;0.98;;
19038;SDS011;9652;49.014;12.052;2022-07-29T11:53:01;0.70;;;0.70;;
19038;SDS011;9652;49.014;12.052;2022-07-29T11:55:36;1.02;;;0.90;;
19038;SDS011;9652;49.014;12.052;2022-07-29T11:58:05;1.10;;;1.00;;
19038;SDS011;9652;49.014;12.052;2022-07-29T12:00:35;1.33;;;1.20;;
19038;SDS011;9652;49.014;12.052;2022-07-29T12:03:06;1.45;;;0.90;;
19038;SDS011;9652;49.014;12.052;2022-07-29T12:05:38;0.70;;;0.70;;
19038;SDS011;9652;49.014;12.052;2022-07-29T12:08:11;0.85;;;0.82;;
19038;SDS011;9652;49.014;12.052;2022-07-29T12:10:41;1.30;;;0.82;;
19038;SDS011;9652;49.014;12.052;2022-07-29T12:13:09;0.80;;;0.80;;
19038;SDS011;9652;49.014;12.052;2022-07-29T12:15:37;1.55;;;1.13;;
19038;SDS011;9652;49.014;12.052;2022-07-29T12:18:13;1.35;;;1.00;;
19038;SDS011;9652;49.014;12.052;2022-07-29T12:20:42;1.52;;;0.90;;
19038;SDS011;9652;49.014;12.052;2022-07-29T12:23:11;1.20;;;1.10;;
19038;SDS011;9652;49.014;12.052;2022-07-29T12:25:38;2.05;;;1.10;;
19038;SDS011;9652;49.014;12.052;2022-07-29T12:28:08;1.45;;;1.00;;
19038;SDS011;9652;49.014;12.052;2022-07-29T12:30:41;5.53;;;1.20;;
19038;SDS011;9652;49.014;12.052;2022-07-29T12:33:13;1.65;;;1.00;;
19038;SDS011;9652;49.014;12.052;2022-07-29T12:35:44;1.55;;;0.90;;
19038;SDS011;9652;49.014;12.052;2022-07-29T12:38:14;1.00;;;1.00;;
19038;SDS011;9652;49.014;12.052;2022-07-29T12:40:42;1.40;;;1.00;;
19038;SDS011;9652;49.014;12.052;2022-07-29T12:43:12;1.33;;;1.20;;
19038;SDS011;9652;49.014;12.052;2022-07-29T12:45:42;0.90;;;0.90;;
19038;SDS011;9652;49.014;12.052;2022-07-29T12:48:14;2.40;;;1.15;;
19038;SDS011;9652;49.014;12.052;2022-07-29T12:50:51;1.13;;;0.93;;
19038;SDS011;9652;49.014;12.052;2022-07-29T12:53:22;1.35;;;1.00;;
19038;SDS011;9652;49.014;12.052;2022-07-29T12:55:50;2.85;;;1.05;;
19038;SDS011;9652;49.014;12.052;2022-07-29T12:58:26;0.70;;;0.70;;
19038;SDS011;9652;49.014;12.052;2022-07-29T13:01:03;0.80;;;0.77;;
19038;SDS011;9652;49.014;12.052;2022-07-29T13:03:48;0.95;;;0.95;;
19038;SDS011;9652;49.014;12.052;2022-07-29T13:06:30;3.13;;;0.80;;
19038;SDS011;9652;49.014;12.052;2022-07-29T13:09:04;0.77;;;0.70;;
19038;SDS011;9652;49.014;12.052;2022-07-29T13:11:35;0.70;;;0.70;;
19038;SDS011;9652;49.014;12.052;2022-07-29T13:14:05;0.90;;;0.90;;
19038;SDS011;9652;49.014;12.052;2022-07-29T13:16:34;1.00;;;0.90;;
19038;SDS011;9652;49.014;12.052;2022-07-29T13:19:08;0.93;;;0.82;;
19038;SDS011;9652;49.014;12.052;2022-07-29T13:21:38;1.02;;;0.93;;
19038;SDS011;9652;49.014;12.052;2022-07-29T13:24:06;0.98;;;0.88;;
19038;SDS011;9652;49.014;12.052;2022-07-29T13:26:34;1.23;;;0.90;;
19038;SDS011;9652;49.014;12.052;2022-07-29T13:29:05;0.75;;;0.75;;
19038;SDS011;9652;49.014;12.052;2022-07-29T13:31:32;0.80;;;0.80;;
19038;SDS011;9652;49.014;12.052;2022-07-29T13:34:00;0.63;;;0.63;;
19038;SDS011;9652;49.014;12.052;2022-07-29T13:36:28;0.77;;;0.70;;
19038;SDS011;9652;49.014;12.052;2022-07-29T13:38:55;2.05;;;0.80;;
19038;SDS011;9652;49.014;12.052;2022-07-29T13:41:22;0.93;;;0.70;;
19038;SDS011;9652;49.014;12.052;2022-07-29T13:43:49;0.70;;;0.68;;
19038;SDS011;9652;49.014;12.052;2022-07-29T13:46:16;1.00;;;0.80;;
19038;SDS011;9652;49.014;12.052;2022-07-29T13:48:43;0.60;;;0.60;;
19038;SDS011;9652;49.014;12.052;2022-07-29T13:51:10;1.23;;;0.82;;
19038;SDS011;9652;49.014;12.052;2022-07-29T13:53:39;1.33;;;0.90;;
19038;SDS011;9652;49.014;12.052;2022-07-29T13:56:06;1.30;;;0.90;;
19038;SDS011;9652;49.014;12.052;2022-07-29T13:58:33;0.70;;;0.70;;
19038;SDS011;9652;49.014;12.052;2022-07-29T14:01:01;0.75;;;0.70;;
19038;SDS011;9652;49.014;12.052;2022-07-29T14:03:28;1.00;;;0.80;;
19038;SDS011;9652;49.014;12.052;2022-07-29T14:05:55;0.80;;;0.80;;
19038;SDS011;9652;49.014;12.052;2022-07-29T14:08:25;1.48;;;0.90;;
19038;SDS011;9652;49.014;12.052;2022-07-29T14:10:53;0.63;;;0.60;;
19038;SDS011;9652;49.014;12.052;2022-07-29T14:13:20;1.55;;;0.63;;
19038;SDS011;9652;49.014;12.052;2022-07-29T14:15:47;1.55;;;0.70;;
19038;SDS011;9652;49.014;12.052;2022-07-29T14:18:14;1.63;;;0.70;;
19038;SDS011;9652;49.014;12.052;2022-07-29T14:20:41;1.60;;;0.90;;
19038;SDS011;9652;49.014;12.052;2022-07-29T14:23:08;1.83;;;0.90;;
19038;SDS011;9652;49.014;12.052;2022-07-29T14:25:36;0.80;;;0.80;;
19038;SDS011;9652;49.014;12.052;2022-07-29T14:28:04;0.85;;;0.77;;
19038;SDS011;9652;49.014;12.052;2022-07-29T14:30:32;2.47;;;0.75;;
19038;SDS011;9652;49.014;12.052;2022-07-29T14:32:59;1.08;;;0.70;;
19038;SDS011;9652;49.014;12.052;2022-07-29T14:35:26;0.82;;;0.82;;
19038;SDS011;9652;49.014;12.052;2022-07-29T14:37:54;0.50;;;0.50;;
19038;SDS011;9652;49.014;12.052;2022-07-29T14:40:21;0.80;;;0.77;;
19038;SDS011;9652;49.014;12.052;2022-07-29T14:42:48;0.90;;;0.88;;
19038;SDS011;9652;49.014;12.052;2022-07-29T14:45:16;1.42;;;1.10;;
19038;SDS011;9652;49.014;12.052;2022-07-29T14:47:43;1.05;;;0.95;;
19038;SDS011;9652;49.014;12.052;2022-07-29T14:50:10;0.90;;;0.90;;
19038;SDS011;9652;49.014;12.052;2022-07-29T14:52:38;1.00;;;0.90;;
19038;SDS011;9652;49.014;12.052;2022-07-29T14:55:06;0.73;;;0.73;;
19038;SDS011;9652;49.014;12.052;2022-07-29T14:57:33;0.73;;;0.73;;
19038;SDS011;9652;49.014;12.052;2022-07-29T15:00:01;0.90;;;0.85;;
19038;SDS011;9652;49.014;12.052;2022-07-29T15:02:31;1.30;;;0.80;;
19038;SDS011;9652;49.014;12.052;2022-07-29T15:04:58;1.10;;;1.00;;
19038;SDS011;9652;49.014;12.052;2022-07-29T15:07:25;0.80;;;0.73;;
19038;SDS011;9652;49.014;12.052;2022-07-29T15:09:53;0.90;;;0.77;;
19038;SDS011;9652;49.014;12.052;2022-07-29T15:12:20;4.25;;;1.73;;
19038;SDS011;9652;49.014;12.052;2022-07-29T15:14:47;1.35;;;1.00;;
19038;SDS011;9652;49.014;12.052;2022-07-29T15:17:14;1.48;;;0.77;;
19038;SDS011;9652;49.014;12.052;2022-07-29T15:19:42;0.93;;;0.80;;
19038;SDS011;9652;49.014;12.052;2022-07-29T15:22:09;1.05;;;0.93;;
19038;SDS011;9652;49.014;12.052;2022-07-29T15:24:36;0.98;;;0.90;;